»·PEaware :: N6061R KSMX-KBFL

N6061R :: KSMX-KBFL

FLIGHT INFORMATION

Flight Status: Arrived
Operator: Privately registered:
United States
More flights under this callsign
Pilot: Daniel L. (17484)
Aircraft: CESSNA 172 SKYHAWK
(C172)
More flights by this aircraft type
Origin: KSMX Santa Maria Pub/Capt Hancock
United States
Destination: KBFL Meadows
United States
More flights between these airports :: More routes between these airports
Route: +
File this flight plan on PilotEdge
Remarks: CAT4
Altitude:
(Current/Filed)
0ft
Speed:
(Current/Filed)
0kts
Departed: 09-Jan-18 09:40 PM
Arrived: 09-Jan-18 10:23 PM
Distance/Time
Traveled:
76nm/0:42
Distance/Time
To Go:
Arrived

Flight Plot

Page will automatically refresh every two minutes.


Map Options




Map Legend


Flown Route
Filed Route
Departure Airport
Arrival Airport
Navaid (VOR, NDB)
Fix

Horizontal Profiles

Position Reports

Time Latitude Longitude Heading Altitude Ground
Speed
09-Jan-18 21:41 34.900203 -120.451155 147 265ft 0kts
09-Jan-18 21:42 34.897520 -120.448883 135 265ft 17kts
09-Jan-18 21:43 34.895017 -120.445904 130 265ft 10kts
09-Jan-18 21:44 34.893699 -120.445380 179 265ft 0kts
09-Jan-18 21:45 34.893672 -120.445379 177 265ft 2kts
09-Jan-18 21:46 34.900713 -120.455403 312 557ft 83kts
09-Jan-18 21:47 34.924310 -120.468649 39 1138ft 107kts
09-Jan-18 21:48 34.935215 -120.436956 70 1962ft 101kts
09-Jan-18 21:49 34.943909 -120.406254 70 2875ft 91kts
09-Jan-18 21:50 34.952238 -120.376689 70 3670ft 94kts
09-Jan-18 21:51 34.960621 -120.346677 70 4442ft 95kts
09-Jan-18 21:52 34.969147 -120.315878 70 5142ft 96kts
09-Jan-18 21:53 34.977809 -120.284308 71 5752ft 100kts
09-Jan-18 21:54 34.986586 -120.252032 71 6352ft 100kts
09-Jan-18 21:55 34.996126 -120.216588 71 6504ft 122kts
09-Jan-18 21:56 35.006789 -120.176392 72 6503ft 125kts
09-Jan-18 21:57 35.019572 -120.136927 66 6504ft 125kts
09-Jan-18 21:58 35.033991 -120.098122 64 6504ft 125kts
09-Jan-18 21:59 35.048742 -120.059596 64 6504ft 125kts
09-Jan-18 22:00 35.063508 -120.021293 64 6504ft 125kts
09-Jan-18 22:01 35.078339 -119.982858 64 6504ft 125kts
09-Jan-18 22:02 35.093036 -119.944746 64 6504ft 125kts
09-Jan-18 22:03 35.107641 -119.906840 64 6504ft 125kts
09-Jan-18 22:04 35.122461 -119.868324 64 6504ft 125kts
09-Jan-18 22:05 35.137221 -119.829922 64 6504ft 125kts
09-Jan-18 22:06 35.151949 -119.791558 64 6504ft 125kts
09-Jan-18 22:07 35.167521 -119.753525 61 6439ft 126kts
09-Jan-18 22:08 35.183502 -119.714724 63 6085ft 129kts
09-Jan-18 22:09 35.199033 -119.674844 64 5683ft 130kts
09-Jan-18 22:10 35.214047 -119.635620 64 5194ft 125kts
09-Jan-18 22:11 35.228814 -119.596971 64 4694ft 125kts
09-Jan-18 22:12 35.243654 -119.558268 64 4193ft 125kts
09-Jan-18 22:13 35.258459 -119.519483 64 3692ft 126kts
09-Jan-18 22:14 35.273199 -119.480805 64 3198ft 126kts
09-Jan-18 22:15 35.287766 -119.442538 64 2787ft 123kts
09-Jan-18 22:16 35.299478 -119.403721 76 2385ft 122kts
09-Jan-18 22:17 35.307875 -119.363991 74 2080ft 117kts
09-Jan-18 22:18 35.316706 -119.326559 71 1882ft 115kts
09-Jan-18 22:19 35.326704 -119.290047 71 1791ft 111kts
09-Jan-18 22:20 35.336342 -119.254686 71 1793ft 108kts
09-Jan-18 22:21 35.347320 -119.218915 68 1628ft 114kts
09-Jan-18 22:22 35.358272 -119.184311 68 1541ft 91kts
09-Jan-18 22:23 35.366318 -119.158897 68 1549ft 84kts
09-Jan-18 22:24 35.365770 -119.124419 97 1417ft 113kts
09-Jan-18 22:25 35.366509 -119.088411 87 1523ft 99kts
09-Jan-18 22:26 35.384002 -119.061954 45 1451ft 112kts
09-Jan-18 22:27 35.404043 -119.037345 34 1122ft 79kts
09-Jan-18 22:28 35.423755 -119.043987 315 715ft 87kts
09-Jan-18 22:29 35.436309 -119.057700 77 497ft 1kts
09-Jan-18 22:30 35.435796 -119.056261 139 497ft 16kts
09-Jan-18 22:31 35.435598 -119.055364 161 497ft 0kts

Navigation Log

Ident Type
Flight plan parsing failed, navigation log unavailable